This is the latest recevied weather packets stored in our database for station/object G4KVI. If no packets are shown the sender has not sent any weather packets the latest 10 day(s).
| Time | Temp. | Humidity | Pressure | Rain* | Wind** | Luminosity | Snow |
|---|---|---|---|---|---|---|---|
| 1787937005 | 16.67° C | 89% | 1009.6 hPa | 1.02 mm | - | 45 W/m² | - |
| 1787936705 | 16.67° C | 89% | 1009.6 hPa | 1.02 mm | - | 48 W/m² | - |
| 1787936405 | 16.67° C | 89% | 1009.7 hPa | 1.02 mm | - | 95 W/m² | - |
| 1787936105 | 16.67° C | 89% | 1009.7 hPa | 1.02 mm | - | 83 W/m² | - |
| 1787935805 | 16.67° C | 88% | 1009.6 hPa | 0.76 mm | - | 90 W/m² | - |
| 1787935505 | 16.67° C | 87% | 1009.8 hPa | 0.76 mm | - | 79 W/m² | - |
| 1787935205 | 16.67° C | 86% | 1009.7 hPa | 0.76 mm | - | 99 W/m² | - |
| 1787934905 | 16.67° C | 85% | 1009.4 hPa | 0.51 mm | - | 83 W/m² | - |
| 1787934605 | 17.22° C | 83% | 1009.6 hPa | 0.25 mm | - | 57 W/m² | - |
| 1787934305 | 17.22° C | 81% | 1009.6 hPa | 0.25 mm | - | 84 W/m² | - |
| 1787934005 | 17.78° C | 79% | 1009.7 hPa | 0 mm | - | 90 W/m² | - |
| 1787933705 | 18.89° C | 74% | 1009.6 hPa | 0 mm | - | 84 W/m² | - |
| 1787933405 | 19.44° C | 68% | 1009.6 hPa | 0 mm | - | 61 W/m² | - |
| 1787933105 | 19.44° C | 68% | 1009.5 hPa | 0 mm | - | 106 W/m² | - |
| 1787932805 | 20° C | 66% | 1009.4 hPa | 0 mm | - | 165 W/m² | - |
| 1787932505 | 20° C | 65% | 1009.5 hPa | 0 mm | - | 181 W/m² | - |
| 1787932205 | 20.56° C | 64% | 1009.5 hPa | 0 mm | - | 181 W/m² | - |
| 1787931905 | 20° C | 66% | 1009.2 hPa | 0 mm | - | 283 W/m² | - |
| 1787931605 | 20° C | 70% | 1009.2 hPa | 0 mm | - | 251 W/m² | - |
| 1787931305 | 20° C | 68% | 1009.2 hPa | 0 mm | - | 172 W/m² | - |
| 1787931004 | 20° C | 69% | 1009.1 hPa | 0 mm | - | 170 W/m² | - |
| 1787930705 | 20.56° C | 68% | 1009.1 hPa | 0 mm | - | 232 W/m² | - |
| 1787930405 | 20.56° C | 69% | 1009.1 hPa | 0 mm | - | 292 W/m² | - |
| 1787930105 | 21.11° C | 67% | 1009 hPa | 0 mm | - | 226 W/m² | - |
| 1787929805 | 21.11° C | 69% | 1009.2 hPa | 0 mm | - | 173 W/m² | - |
* Rain latest hour (hover to see other rain measurements)
** Current wind speed in m/s (hover to see current wind gust speed)